createdAt,value
2023-11-23T00:01:18.177Z,101829.25
2023-11-23T00:03:44.591Z,101821.28
2023-11-23T00:06:10.992Z,101824.66
2023-11-23T00:08:37.426Z,101817.72
2023-11-23T00:11:04.195Z,101820.66
2023-11-23T00:13:30.548Z,101812.63
2023-11-23T00:15:56.877Z,101807.34
2023-11-23T00:18:23.382Z,101809.22
2023-11-23T00:20:49.887Z,101793.53
2023-11-23T00:23:16.272Z,101790.09
2023-11-23T00:25:42.718Z,101791.91
2023-11-23T00:28:09.393Z,101790.09
2023-11-23T00:30:35.827Z,101775.38
2023-11-23T00:33:02.273Z,101785.00
2023-11-23T00:35:28.661Z,101788.63
2023-11-23T00:37:55.069Z,101785.97
2023-11-23T00:40:21.391Z,101791.31
2023-11-23T00:42:47.722Z,101788.72
2023-11-23T00:45:15.966Z,101789.78
2023-11-23T00:47:43.236Z,101793.31
2023-11-23T00:50:10.083Z,101783.69
2023-11-23T00:52:36.488Z,101784.69
2023-11-23T00:55:05.842Z,101769.84
2023-11-23T00:57:33.342Z,101771.53
2023-11-23T01:00:01.300Z,101760.84
2023-11-23T01:02:28.603Z,101747.91
2023-11-23T01:04:55.138Z,101742.56
2023-11-23T01:07:21.550Z,101735.63
2023-11-23T01:09:47.881Z,101742.72
2023-11-23T01:12:15.139Z,101738.31
2023-11-23T01:14:41.748Z,101742.72
2023-11-23T01:17:08.155Z,101750.66
2023-11-23T01:19:34.496Z,101755.81
2023-11-23T01:22:00.930Z,101745.22
2023-11-23T01:24:27.409Z,101747.09
2023-11-23T01:26:53.858Z,101756.94
2023-11-23T01:29:20.295Z,101751.56
2023-11-23T01:31:46.659Z,101763.91
2023-11-23T01:34:13.109Z,101773.59
2023-11-23T01:36:39.517Z,101774.50
2023-11-23T01:39:06.199Z,101778.94
2023-11-23T01:41:32.696Z,101767.50
2023-11-23T01:43:59.049Z,101763.00
2023-11-23T01:46:25.436Z,101762.19
2023-11-23T01:48:54.377Z,101753.44
2023-11-23T01:51:21.155Z,101751.66
2023-11-23T01:53:47.695Z,101751.72
2023-11-23T01:56:15.195Z,101744.50
2023-11-23T01:58:41.805Z,101733.28
2023-11-23T02:01:08.246Z,101729.47
2023-11-23T02:03:35.171Z,101726.13
2023-11-23T02:06:01.795Z,101722.81
2023-11-23T02:08:28.393Z,101728.06
2023-11-23T02:10:55.150Z,101723.59
2023-11-23T02:13:21.810Z,101727.16
2023-11-23T02:15:48.868Z,101723.63
2023-11-23T02:18:15.385Z,101727.19
2023-11-23T02:20:47.869Z,101724.72
2023-11-23T02:23:14.334Z,101732.28
2023-11-23T02:25:40.782Z,101733.19
2023-11-23T02:28:07.997Z,101715.72
2023-11-23T02:30:34.529Z,101718.34
2023-11-23T02:33:05.310Z,101711.41
2023-11-23T02:35:31.798Z,101705.47
2023-11-23T02:37:58.193Z,101703.81
2023-11-23T02:40:24.639Z,101701.97
2023-11-23T02:42:51.048Z,101696.69
2023-11-23T02:45:17.551Z,101691.34
2023-11-23T02:47:44.069Z,101690.59
2023-11-23T02:50:12.704Z,101687.91
2023-11-23T02:52:39.763Z,101693.25
2023-11-23T02:55:06.771Z,101686.25
2023-11-23T02:57:33.142Z,101685.00
2023-11-23T02:59:59.547Z,101686.84
2023-11-23T03:02:26.239Z,101690.22
2023-11-23T03:04:55.097Z,101682.63
2023-11-23T03:07:21.597Z,101689.59
2023-11-23T03:09:47.952Z,101692.28
2023-11-23T03:12:14.361Z,101695.78
2023-11-23T03:14:40.848Z,101687.91
2023-11-23T03:17:08.780Z,101685.13
2023-11-23T03:19:35.224Z,101690.44
2023-11-23T03:22:01.652Z,101691.22
2023-11-23T03:24:28.126Z,101671.16
2023-11-23T03:26:54.527Z,101685.16
2023-11-23T03:29:20.992Z,101669.28
2023-11-23T03:31:48.657Z,101667.38
2023-11-23T03:34:15.227Z,101670.84
2023-11-23T03:36:41.662Z,101671.75
2023-11-23T03:39:08.320Z,101679.31
2023-11-23T03:41:35.303Z,101670.47
2023-11-23T03:44:01.991Z,101665.94
2023-11-23T03:46:28.401Z,101659.63
2023-11-23T03:48:55.276Z,101654.31
2023-11-23T03:51:22.259Z,101659.50
2023-11-23T03:53:48.702Z,101656.75
2023-11-23T03:56:19.398Z,101654.03
2023-11-23T03:58:45.894Z,101654.91
2023-11-23T04:01:12.365Z,101661.81
2023-11-23T04:03:45.462Z,101659.13
2023-11-23T04:06:12.764Z,101663.25
2023-11-23T04:08:42.000Z,101645.00
2023-11-23T04:11:10.668Z,101654.34
2023-11-23T04:13:37.108Z,101655.16
2023-11-23T04:16:03.817Z,101646.41
2023-11-23T04:18:30.143Z,101650.38
2023-11-23T04:20:56.629Z,101649.50
2023-11-23T04:23:23.073Z,101659.22
2023-11-23T04:25:49.654Z,101647.72
2023-11-23T04:28:15.974Z,101638.91
2023-11-23T04:30:42.374Z,101650.28
2023-11-23T04:33:08.799Z,101639.00
2023-11-23T04:35:35.875Z,101645.09
2023-11-23T04:38:02.265Z,101643.28
2023-11-23T04:40:28.648Z,101644.09
2023-11-23T04:42:54.978Z,101639.63
2023-11-23T04:45:21.878Z,101621.16
2023-11-23T04:47:48.388Z,101628.06
2023-11-23T04:50:14.886Z,101628.03
2023-11-23T04:52:41.325Z,101630.69
2023-11-23T04:55:08.725Z,101633.97
2023-11-23T04:57:35.166Z,101626.03
2023-11-23T05:00:01.649Z,101630.38
2023-11-23T05:02:28.092Z,101627.69
2023-11-23T05:04:54.511Z,101625.97
2023-11-23T05:07:21.714Z,101631.19
2023-11-23T05:09:48.077Z,101623.25
2023-11-23T05:12:14.516Z,101624.88
2023-11-23T05:14:40.947Z,101619.38
2023-11-23T05:17:07.532Z,101625.66
2023-11-23T05:19:41.839Z,101624.56
2023-11-23T05:22:09.435Z,101629.03
2023-11-23T05:24:36.028Z,101619.38
2023-11-23T05:27:02.478Z,101617.59
2023-11-23T05:29:28.826Z,101610.34
2023-11-23T05:31:55.175Z,101615.75
2023-11-23T05:34:21.576Z,101618.38
2023-11-23T05:36:47.960Z,101620.84
2023-11-23T05:39:14.502Z,101615.63
2023-11-23T05:41:40.890Z,101624.31
2023-11-23T05:44:08.155Z,101627.63
2023-11-23T05:46:34.963Z,101630.97
2023-11-23T05:49:01.750Z,101631.84
2023-11-23T05:51:29.249Z,101622.38
2023-11-23T05:53:55.975Z,101629.13
2023-11-23T05:56:22.422Z,101627.09
2023-11-23T05:58:49.452Z,101623.72
2023-11-23T06:01:16.081Z,101625.41
2023-11-23T06:03:43.108Z,101623.63
2023-11-23T06:06:17.856Z,101614.84
2023-11-23T06:08:44.204Z,101610.50
2023-11-23T06:11:10.576Z,101610.34
2023-11-23T06:13:36.936Z,101602.50
2023-11-23T06:16:03.661Z,101599.84
2023-11-23T06:18:30.074Z,101587.72
2023-11-23T06:20:56.695Z,101597.22
2023-11-23T06:23:23.893Z,101604.41
2023-11-23T06:25:50.217Z,101598.25
2023-11-23T06:28:16.625Z,101600.84
2023-11-23T06:30:46.207Z,101585.75
2023-11-23T06:33:13.234Z,101571.91
2023-11-23T06:35:39.708Z,101588.41
2023-11-23T06:38:06.022Z,101595.47
2023-11-23T06:40:35.235Z,101595.41
2023-11-23T06:43:06.087Z,101590.91
2023-11-23T06:45:33.423Z,101594.56
2023-11-23T06:47:59.963Z,101582.38
2023-11-23T06:50:26.373Z,101567.31
2023-11-23T06:52:52.754Z,101608.03
2023-11-23T06:55:19.779Z,101618.56
2023-11-23T06:57:48.813Z,101613.06
2023-11-23T07:00:28.406Z,101620.13
2023-11-23T07:02:58.096Z,101617.31
2023-11-23T07:05:25.637Z,101624.06
2023-11-23T07:07:53.047Z,101615.25
2023-11-23T07:10:20.756Z,101619.53
2023-11-23T07:12:49.271Z,101619.47
2023-11-23T07:15:15.957Z,101617.56
2023-11-23T07:17:43.702Z,101621.84
2023-11-23T07:20:13.075Z,101631.47
2023-11-23T07:22:40.250Z,101625.13
2023-11-23T07:25:10.169Z,101625.88
2023-11-23T07:27:38.049Z,101625.94
2023-11-23T07:30:10.219Z,101638.19
2023-11-23T07:32:37.667Z,101612.72
2023-11-23T07:35:05.352Z,101609.22
2023-11-23T07:37:32.349Z,101609.22
2023-11-23T07:39:58.846Z,101603.94
2023-11-23T07:42:26.490Z,101605.63
2023-11-23T07:44:53.237Z,101609.09
2023-11-23T07:47:20.741Z,101595.97
2023-11-23T07:49:47.077Z,101593.91
2023-11-23T07:52:14.590Z,101594.66
2023-11-23T07:54:40.991Z,101595.28
2023-11-23T07:57:07.598Z,101589.16
2023-11-23T07:59:37.290Z,101599.53
2023-11-23T08:02:05.641Z,101595.28
2023-11-23T08:04:32.643Z,101595.16
2023-11-23T08:06:59.830Z,101595.94
2023-11-23T08:09:26.233Z,101594.16
2023-11-23T08:11:53.973Z,101597.59
2023-11-23T08:14:21.249Z,101586.00
2023-11-23T08:16:47.841Z,101591.50
2023-11-23T08:19:17.478Z,101573.00
2023-11-23T08:21:44.696Z,101578.91
2023-11-23T08:24:12.001Z,101580.66
2023-11-23T08:26:38.345Z,101579.78
2023-11-23T08:29:06.403Z,101573.41
2023-11-23T08:31:32.848Z,101576.72
2023-11-23T08:33:59.635Z,101561.66
2023-11-23T08:36:26.430Z,101566.69
2023-11-23T08:38:52.891Z,101557.72
2023-11-23T08:41:19.397Z,101562.22
2023-11-23T08:43:47.923Z,101572.53
2023-11-23T08:46:15.162Z,101580.47
2023-11-23T08:48:42.542Z,101585.31
2023-11-23T08:51:09.325Z,101577.25
2023-11-23T08:53:35.978Z,101576.16
2023-11-23T08:56:02.704Z,101564.47
2023-11-23T08:58:29.239Z,101567.75
2023-11-23T09:00:55.613Z,101562.31
2023-11-23T09:03:22.529Z,101568.22
2023-11-23T09:05:49.133Z,101569.97
2023-11-23T09:08:15.862Z,101541.34
2023-11-23T09:10:43.714Z,101535.44
2023-11-23T09:13:10.234Z,101543.66
2023-11-23T09:15:37.819Z,101537.31
2023-11-23T09:18:07.517Z,101537.09
2023-11-23T09:20:33.905Z,101534.75
2023-11-23T09:23:03.533Z,101537.16
2023-11-23T09:25:34.518Z,101529.50
2023-11-23T09:28:01.230Z,101531.59
2023-11-23T09:30:27.677Z,101539.38
2023-11-23T09:32:54.526Z,101522.53
2023-11-23T09:35:21.025Z,101512.50
2023-11-23T09:37:47.455Z,101529.75
2023-11-23T09:40:20.698Z,101527.97
2023-11-23T09:42:50.489Z,101521.53
2023-11-23T09:45:24.149Z,101509.03
2023-11-23T09:47:52.896Z,101504.06
2023-11-23T09:50:20.367Z,101503.44
2023-11-23T09:52:48.123Z,101519.31
2023-11-23T09:55:18.608Z,101519.22
2023-11-23T09:57:46.063Z,101512.28
2023-11-23T10:00:15.279Z,101529.00
2023-11-23T10:02:46.561Z,101517.69
2023-11-23T10:05:17.038Z,101508.75
2023-11-23T10:07:44.413Z,101515.47
2023-11-23T10:10:12.589Z,101509.19
2023-11-23T10:12:40.297Z,101509.88
2023-11-23T10:15:09.774Z,101510.63
2023-11-23T10:17:36.246Z,101498.13
2023-11-23T10:20:06.282Z,101499.06
2023-11-23T10:22:32.690Z,101490.00
2023-11-23T10:25:00.207Z,101473.00
2023-11-23T10:27:26.682Z,101476.28
2023-11-23T10:29:53.078Z,101469.03
2023-11-23T10:32:21.653Z,101466.22
2023-11-23T10:34:48.000Z,101458.88
2023-11-23T10:37:17.603Z,101450.50
2023-11-23T10:39:48.298Z,101441.47
2023-11-23T10:42:16.363Z,101428.47
2023-11-23T10:44:43.227Z,101439.38
2023-11-23T10:47:12.465Z,101424.75
2023-11-23T10:49:40.181Z,101427.88
2023-11-23T10:52:09.856Z,101423.88
2023-11-23T10:54:37.758Z,101417.59
2023-11-23T10:57:08.589Z,101412.44
2023-11-23T10:59:35.828Z,101405.75
2023-11-23T11:02:03.506Z,101400.88
2023-11-23T11:04:30.637Z,101396.16
2023-11-23T11:06:58.548Z,101388.53
2023-11-23T11:09:30.549Z,101382.03
2023-11-23T11:11:58.028Z,101375.84
2023-11-23T11:14:52.051Z,101375.41
2023-11-23T11:17:18.388Z,101359.16
2023-11-23T11:19:51.312Z,101355.31
2023-11-23T11:22:18.354Z,101359.69
2023-11-23T11:24:47.665Z,101367.16
2023-11-23T11:27:15.121Z,101364.31
2023-11-23T11:29:53.834Z,101359.59
2023-11-23T11:32:21.834Z,101350.66
2023-11-23T11:34:48.224Z,101347.03
2023-11-23T11:37:15.804Z,101335.94
2023-11-23T11:39:42.383Z,101315.50
2023-11-23T11:42:11.339Z,101311.88
2023-11-23T11:44:44.493Z,101304.75
2023-11-23T11:47:12.032Z,101291.38
2023-11-23T11:49:38.507Z,101295.56
2023-11-23T11:52:10.056Z,101307.00
2023-11-23T11:54:39.418Z,101303.38
2023-11-23T11:57:12.884Z,101290.06
2023-11-23T11:59:39.602Z,101293.56
2023-11-23T12:02:06.978Z,101286.47
2023-11-23T12:04:35.594Z,101288.59
2023-11-23T12:07:02.415Z,101284.41
2023-11-23T12:09:34.870Z,101275.09
2023-11-23T12:12:11.271Z,101275.50
2023-11-23T12:14:37.929Z,101272.09
2023-11-23T12:17:11.781Z,101272.56
2023-11-23T12:19:50.099Z,101261.22
2023-11-23T12:22:20.962Z,101272.84
2023-11-23T12:24:47.390Z,101255.91
2023-11-23T12:27:15.768Z,101236.16
2023-11-23T12:29:42.247Z,101235.22
2023-11-23T12:32:08.657Z,101239.69
2023-11-23T12:34:35.360Z,101228.09
2023-11-23T12:37:02.272Z,101226.19
2023-11-23T12:39:31.872Z,101227.69
2023-11-23T12:41:58.361Z,101230.19
2023-11-23T12:44:24.746Z,101220.25
2023-11-23T12:46:51.384Z,101198.81
2023-11-23T12:49:18.682Z,101207.56
2023-11-23T12:51:45.806Z,101214.53
2023-11-23T12:54:12.409Z,101191.28
2023-11-23T12:56:39.101Z,101185.09
2023-11-23T12:59:08.503Z,101192.78
2023-11-23T13:01:39.667Z,101185.72
2023-11-23T13:04:08.795Z,101184.78
2023-11-23T13:06:39.045Z,101169.72
2023-11-23T13:09:12.444Z,101173.59
2023-11-23T13:11:38.832Z,101162.81
2023-11-23T13:14:07.096Z,101157.59
2023-11-23T13:16:33.450Z,101159.31
2023-11-23T13:19:11.463Z,101153.53
2023-11-23T13:21:46.335Z,101163.31
2023-11-23T13:24:13.420Z,101160.88
2023-11-23T13:26:39.925Z,101154.47
2023-11-23T13:29:07.243Z,101159.16
2023-11-23T13:31:34.757Z,101147.84
2023-11-23T13:34:01.860Z,101134.88
2023-11-23T13:36:35.334Z,101137.66
2023-11-23T13:39:03.065Z,101135.25
2023-11-23T13:41:29.754Z,101128.44
2023-11-23T13:43:56.144Z,101146.31
2023-11-23T13:46:22.792Z,101127.84
2023-11-23T13:48:51.133Z,101129.56
2023-11-23T13:51:22.643Z,101118.91
2023-11-23T13:53:49.540Z,101121.66
2023-11-23T13:56:16.025Z,101119.00
2023-11-23T13:58:42.389Z,101118.91
2023-11-23T14:01:08.820Z,101123.38
2023-11-23T14:03:36.049Z,101115.16
2023-11-23T14:06:06.048Z,101107.09
2023-11-23T14:08:32.898Z,101096.22
2023-11-23T14:10:59.310Z,101095.13
2023-11-23T14:13:26.509Z,101090.47
2023-11-23T14:15:54.204Z,101086.63
2023-11-23T14:18:22.259Z,101085.69
2023-11-23T14:20:50.745Z,101088.91
2023-11-23T14:23:18.505Z,101087.38
2023-11-23T14:25:44.929Z,101087.50
2023-11-23T14:28:15.960Z,101083.00
2023-11-23T14:30:46.510Z,101086.84
2023-11-23T14:33:14.167Z,101083.44
2023-11-23T14:35:42.573Z,101072.84
2023-11-23T14:38:11.816Z,101067.81
2023-11-23T14:40:38.246Z,101064.47
2023-11-23T14:43:04.790Z,101082.41
2023-11-23T14:45:33.183Z,101086.03
2023-11-23T14:48:00.076Z,101063.25
2023-11-23T14:50:30.158Z,101060.53
2023-11-23T14:52:57.822Z,101058.13
2023-11-23T14:55:24.308Z,101056.44
2023-11-23T14:57:50.902Z,101049.94
2023-11-23T15:00:17.905Z,101027.44
2023-11-23T15:02:44.439Z,101004.59
2023-11-23T15:05:13.658Z,101008.13
2023-11-23T15:07:41.100Z,100997.47
2023-11-23T15:10:13.130Z,100996.09
2023-11-23T15:12:40.979Z,100993.34
2023-11-23T15:15:08.147Z,101000.66
2023-11-23T15:17:34.795Z,101000.66
2023-11-23T15:20:01.238Z,101009.13
2023-11-23T15:22:28.674Z,100998.00
2023-11-23T15:25:02.855Z,100990.75
2023-11-23T15:27:34.930Z,100989.38
2023-11-23T15:30:01.459Z,100995.84
2023-11-23T15:32:31.620Z,101004.69
2023-11-23T15:34:58.050Z,101005.00
2023-11-23T15:37:24.753Z,100989.41
2023-11-23T15:39:51.169Z,100992.06
2023-11-23T15:42:17.620Z,100982.56
2023-11-23T15:44:44.065Z,100978.28
2023-11-23T15:47:12.011Z,100974.00
2023-11-23T15:49:38.664Z,100973.16
2023-11-23T15:52:05.508Z,100969.75
2023-11-23T15:54:31.895Z,100968.97
2023-11-23T15:56:58.373Z,100978.59
2023-11-23T15:59:25.659Z,100980.31
2023-11-23T16:01:52.285Z,100972.31
2023-11-23T16:04:18.988Z,100978.00
2023-11-23T16:06:46.798Z,100970.00
2023-11-23T16:09:13.277Z,100969.88
2023-11-23T16:11:40.434Z,100967.31
2023-11-23T16:14:11.268Z,100960.34
2023-11-23T16:16:40.847Z,100976.28
2023-11-23T16:19:07.686Z,100961.53
2023-11-23T16:21:34.160Z,100966.75
2023-11-23T16:24:01.112Z,100963.25
2023-11-23T16:26:28.855Z,100971.34
2023-11-23T16:29:00.612Z,100963.56
2023-11-23T16:31:27.861Z,100974.97
2023-11-23T16:33:57.596Z,100961.44
2023-11-23T16:36:32.956Z,100972.09
2023-11-23T16:39:05.644Z,100962.94
2023-11-23T16:41:32.396Z,100965.63
2023-11-23T16:43:58.794Z,100967.50
2023-11-23T16:46:25.218Z,100957.81
2023-11-23T16:48:51.677Z,100963.03
2023-11-23T16:51:19.813Z,100943.72
2023-11-23T16:53:46.237Z,100941.81
2023-11-23T16:56:13.127Z,100924.09
2023-11-23T16:58:39.901Z,100924.94
2023-11-23T17:01:06.316Z,100928.38
2023-11-23T17:03:32.832Z,100930.94
2023-11-23T17:06:01.416Z,100922.38
2023-11-23T17:08:28.991Z,100929.66
2023-11-23T17:10:55.958Z,100925.16
2023-11-23T17:13:24.099Z,100913.66
2023-11-23T17:15:50.874Z,100904.13
2023-11-23T17:18:17.436Z,100887.38
2023-11-23T17:20:43.853Z,100881.84
2023-11-23T17:23:11.811Z,100895.16
2023-11-23T17:25:40.096Z,100898.28
2023-11-23T17:28:07.484Z,100892.09
2023-11-23T17:30:34.898Z,100874.19
2023-11-23T17:33:01.657Z,100869.53
2023-11-23T17:35:29.021Z,100870.03
2023-11-23T17:37:55.641Z,100869.84
2023-11-23T17:40:22.626Z,100861.00
2023-11-23T17:42:49.172Z,100875.31
2023-11-23T17:45:15.765Z,100874.13
2023-11-23T17:47:45.090Z,100872.31
2023-11-23T17:50:12.922Z,100858.13
2023-11-23T17:52:39.647Z,100859.81
2023-11-23T17:55:06.755Z,100848.97
2023-11-23T17:57:35.544Z,100842.84
2023-11-23T18:00:07.112Z,100833.03
2023-11-23T18:02:34.520Z,100825.59
2023-11-23T18:05:01.120Z,100826.84
2023-11-23T18:07:27.476Z,100812.56
2023-11-23T18:09:53.899Z,100811.63
2023-11-23T18:12:20.454Z,100818.56
2023-11-23T18:14:46.917Z,100814.19
2023-11-23T18:17:13.320Z,100809.81
2023-11-23T18:19:39.801Z,100810.66
2023-11-23T18:22:06.822Z,100804.25
2023-11-23T18:24:34.314Z,100798.81
2023-11-23T18:27:03.128Z,100794.22
2023-11-23T18:29:29.539Z,100788.69
2023-11-23T18:31:56.070Z,100781.41
2023-11-23T18:34:22.442Z,100777.66
2023-11-23T18:36:51.022Z,100771.72
2023-11-23T18:39:19.314Z,100769.47
2023-11-23T18:41:46.647Z,100752.63
2023-11-23T18:44:13.890Z,100761.56
2023-11-23T18:46:40.412Z,100760.50
2023-11-23T18:49:06.797Z,100777.13
2023-11-23T18:51:33.241Z,100768.28
2023-11-23T18:53:59.799Z,100769.25
2023-11-23T18:56:26.124Z,100768.41
2023-11-23T18:58:52.425Z,100756.53
2023-11-23T19:01:19.055Z,100743.09
2023-11-23T19:03:46.635Z,100726.31
2023-11-23T19:06:13.143Z,100724.19
2023-11-23T19:08:39.559Z,100712.44
2023-11-23T19:11:06.238Z,100706.66
2023-11-23T19:13:32.985Z,100692.03
2023-11-23T19:15:59.683Z,100696.81
2023-11-23T19:18:26.458Z,100696.25
2023-11-23T19:20:53.379Z,100684.66
2023-11-23T19:23:20.257Z,100689.66
2023-11-23T19:25:50.373Z,100694.44
2023-11-23T19:28:17.319Z,100690.59
2023-11-23T19:30:44.123Z,100686.81
2023-11-23T19:33:11.411Z,100679.53
2023-11-23T19:35:38.019Z,100677.97
2023-11-23T19:38:05.301Z,100682.84
2023-11-23T19:40:32.471Z,100682.28
2023-11-23T19:43:00.141Z,100683.00
2023-11-23T19:45:28.070Z,100685.09
2023-11-23T19:47:55.143Z,100692.03
2023-11-23T19:50:22.398Z,100683.88
2023-11-23T19:52:52.632Z,100684.88
2023-11-23T19:55:19.004Z,100690.75
2023-11-23T19:57:45.470Z,100671.88
2023-11-23T20:00:12.913Z,100688.41
2023-11-23T20:02:39.542Z,100684.31
2023-11-23T20:05:06.531Z,100684.44
2023-11-23T20:07:33.618Z,100679.09
2023-11-23T20:10:00.043Z,100676.06
2023-11-23T20:12:27.637Z,100668.16
2023-11-23T20:14:55.390Z,100671.78
2023-11-23T20:17:22.699Z,100676.06
2023-11-23T20:19:49.352Z,100665.38
2023-11-23T20:22:16.511Z,100663.56
2023-11-23T20:24:43.261Z,100647.41
2023-11-23T20:27:12.598Z,100647.66
2023-11-23T20:29:39.141Z,100640.34
2023-11-23T20:32:06.063Z,100625.41
2023-11-23T20:34:32.659Z,100621.53
2023-11-23T20:36:59.807Z,100618.75
2023-11-23T20:39:27.948Z,100627.25
2023-11-23T20:41:54.313Z,100606.59
2023-11-23T20:44:20.646Z,100607.81
2023-11-23T20:46:48.979Z,100595.91
2023-11-23T20:49:15.511Z,100598.56
2023-11-23T20:51:41.962Z,100588.47
2023-11-23T20:54:08.515Z,100580.81
2023-11-23T20:56:36.082Z,100575.56
2023-11-23T20:59:05.246Z,100558.69
2023-11-23T21:01:34.127Z,100556.00
2023-11-23T21:04:01.429Z,100551.63
2023-11-23T21:06:29.794Z,100547.63
2023-11-23T21:08:56.487Z,100544.47
2023-11-23T21:11:24.294Z,100537.28
2023-11-23T21:13:50.737Z,100539.25
2023-11-23T21:16:17.169Z,100530.97
2023-11-23T21:18:43.631Z,100526.13
2023-11-23T21:21:10.681Z,100511.88
2023-11-23T21:23:37.732Z,100517.09
2023-11-23T21:26:05.429Z,100504.59
2023-11-23T21:28:32.997Z,100493.78
2023-11-23T21:30:59.525Z,100500.59
2023-11-23T21:33:26.130Z,100502.56
2023-11-23T21:35:52.552Z,100501.59
2023-11-23T21:38:18.915Z,100503.50
2023-11-23T21:40:45.314Z,100504.25
2023-11-23T21:43:11.670Z,100509.47
2023-11-23T21:45:38.059Z,100504.59
2023-11-23T21:48:04.890Z,100500.47
2023-11-23T21:50:32.203Z,100491.97
2023-11-23T21:52:59.927Z,100496.34
2023-11-23T21:55:26.442Z,100494.25
2023-11-23T21:57:52.872Z,100498.13
2023-11-23T22:00:19.400Z,100487.41
2023-11-23T22:02:45.920Z,100492.63
2023-11-23T22:05:12.397Z,100488.53
2023-11-23T22:07:38.753Z,100480.63
2023-11-23T22:10:05.940Z,100483.88
2023-11-23T22:12:32.348Z,100466.72
2023-11-23T22:14:59.058Z,100454.31
2023-11-23T22:17:26.297Z,100456.03
2023-11-23T22:19:53.400Z,100450.44
2023-11-23T22:22:20.681Z,100443.50
2023-11-23T22:24:47.228Z,100443.75
2023-11-23T22:27:13.895Z,100441.22
2023-11-23T22:29:40.430Z,100431.38
2023-11-23T22:32:07.499Z,100432.22
2023-11-23T22:34:34.169Z,100418.31
2023-11-23T22:37:00.910Z,100411.38
2023-11-23T22:39:27.623Z,100393.97
2023-11-23T22:41:54.205Z,100383.28
2023-11-23T22:44:21.193Z,100371.59
2023-11-23T22:46:47.876Z,100368.63
2023-11-23T22:49:14.391Z,100349.19
2023-11-23T22:51:41.652Z,100344.97
2023-11-23T22:54:08.220Z,100339.63
2023-11-23T22:56:34.607Z,100334.84
2023-11-23T22:59:00.968Z,100330.09
2023-11-23T23:01:28.893Z,100333.84
2023-11-23T23:03:55.393Z,100319.25
2023-11-23T23:06:22.835Z,100319.09
2023-11-23T23:08:49.782Z,100297.56
2023-11-23T23:11:18.573Z,100296.06
2023-11-23T23:13:44.895Z,100304.22
2023-11-23T23:16:11.361Z,100312.81
2023-11-23T23:18:37.972Z,100314.66
2023-11-23T23:21:04.627Z,100303.94
2023-11-23T23:23:30.975Z,100302.56
2023-11-23T23:25:57.368Z,100304.78
2023-11-23T23:28:29.856Z,100305.25
2023-11-23T23:30:58.994Z,100301.31
2023-11-23T23:33:25.528Z,100295.25
2023-11-23T23:35:53.000Z,100286.66
2023-11-23T23:38:19.498Z,100276.38
2023-11-23T23:40:50.394Z,100269.09
2023-11-23T23:43:18.179Z,100271.63
2023-11-23T23:45:44.810Z,100272.19
2023-11-23T23:48:11.228Z,100268.66
2023-11-23T23:50:37.698Z,100248.22
2023-11-23T23:53:04.051Z,100237.84
2023-11-23T23:55:30.488Z,100242.59
2023-11-23T23:57:58.008Z,100238.38
